createdAt,value
2023-03-19T00:00:24.525Z,100811.50
2023-03-19T00:02:51.150Z,100816.81
2023-03-19T00:05:18.269Z,100816.00
2023-03-19T00:07:46.089Z,100817.66
2023-03-19T00:10:12.627Z,100820.63
2023-03-19T00:12:39.432Z,100820.00
2023-03-19T00:15:06.980Z,100823.66
2023-03-19T00:17:33.520Z,100822.66
2023-03-19T00:19:59.983Z,100820.97
2023-03-19T00:22:26.470Z,100819.31
2023-03-19T00:24:54.271Z,100830.78
2023-03-19T00:27:20.765Z,100827.44
2023-03-19T00:29:47.214Z,100831.78
2023-03-19T00:32:13.714Z,100833.59
2023-03-19T00:34:40.303Z,100824.28
2023-03-19T00:37:06.812Z,100832.78
2023-03-19T00:39:33.313Z,100838.09
2023-03-19T00:42:01.541Z,100836.41
2023-03-19T00:44:28.001Z,100833.75
2023-03-19T00:46:54.476Z,100835.44
2023-03-19T00:49:21.178Z,100823.81
2023-03-19T00:51:47.803Z,100829.28
2023-03-19T00:54:14.360Z,100828.44
2023-03-19T00:56:40.865Z,100824.13
2023-03-19T00:59:08.781Z,100831.41
2023-03-19T01:01:35.392Z,100826.94
2023-03-19T01:04:02.007Z,100833.25
2023-03-19T01:06:28.576Z,100835.41
2023-03-19T01:08:55.075Z,100835.41
2023-03-19T01:11:21.565Z,100834.72
2023-03-19T01:13:48.216Z,100834.03
2023-03-19T01:16:16.016Z,100835.34
2023-03-19T01:18:42.569Z,100836.53
2023-03-19T01:21:09.053Z,100832.34
2023-03-19T01:23:35.560Z,100837.00
2023-03-19T01:26:02.045Z,100841.63
2023-03-19T01:28:28.729Z,100830.50
2023-03-19T01:30:59.022Z,100831.50
2023-03-19T01:33:26.911Z,100828.00
2023-03-19T01:35:53.497Z,100829.97
2023-03-19T01:38:20.020Z,100829.81
2023-03-19T01:40:47.627Z,100829.81
2023-03-19T01:43:17.426Z,100830.66
2023-03-19T01:45:45.353Z,100834.66
2023-03-19T01:48:19.688Z,100828.50
2023-03-19T01:50:49.279Z,100824.16
2023-03-19T01:53:17.846Z,100827.66
2023-03-19T01:55:45.821Z,100836.31
2023-03-19T01:58:12.378Z,100826.50
2023-03-19T02:00:39.031Z,100818.69
2023-03-19T02:03:06.400Z,100822.34
2023-03-19T02:05:34.459Z,100817.84
2023-03-19T02:08:06.038Z,100816.72
2023-03-19T02:10:33.757Z,100820.06
2023-03-19T02:13:00.499Z,100820.06
2023-03-19T02:15:27.034Z,100821.72
2023-03-19T02:17:53.710Z,100816.41
2023-03-19T02:20:26.513Z,100825.38
2023-03-19T02:23:05.396Z,100821.03
2023-03-19T02:25:39.456Z,100822.41
2023-03-19T02:28:08.203Z,100825.72
2023-03-19T02:30:35.074Z,100824.06
2023-03-19T02:33:01.847Z,100824.06
2023-03-19T02:35:31.707Z,100818.75
2023-03-19T02:37:58.261Z,100823.03
2023-03-19T02:40:29.315Z,100825.91
2023-03-19T02:42:55.799Z,100825.06
2023-03-19T02:45:28.813Z,100831.22
2023-03-19T02:47:55.693Z,100834.69
2023-03-19T02:50:22.262Z,100832.38
2023-03-19T02:52:48.934Z,100830.03
2023-03-19T02:55:15.504Z,100832.69
2023-03-19T02:57:41.999Z,100832.69
2023-03-19T03:00:09.951Z,100838.53
2023-03-19T03:02:38.242Z,100838.53
2023-03-19T03:05:05.344Z,100840.66
2023-03-19T03:07:32.475Z,100833.38
2023-03-19T03:09:59.089Z,100830.25
2023-03-19T03:12:25.609Z,100838.06
2023-03-19T03:14:52.089Z,100833.75
2023-03-19T03:17:18.639Z,100823.78
2023-03-19T03:19:46.519Z,100837.22
2023-03-19T03:22:13.021Z,100845.06
2023-03-19T03:24:39.524Z,100843.38
2023-03-19T03:27:06.133Z,100856.69
2023-03-19T03:29:32.598Z,100852.66
2023-03-19T03:31:59.117Z,100844.84
2023-03-19T03:34:25.700Z,100857.97
2023-03-19T03:36:53.676Z,100848.50
2023-03-19T03:39:20.187Z,100842.03
2023-03-19T03:41:46.713Z,100844.84
2023-03-19T03:44:13.247Z,100848.34
2023-03-19T03:46:39.853Z,100856.47
2023-03-19T03:49:06.362Z,100859.47
2023-03-19T03:51:32.826Z,100861.94
2023-03-19T03:54:00.781Z,100867.59
2023-03-19T03:56:27.255Z,100863.94
2023-03-19T03:58:53.818Z,100869.91
2023-03-19T04:01:20.468Z,100872.25
2023-03-19T04:03:47.008Z,100873.25
2023-03-19T04:06:15.696Z,100867.25
2023-03-19T04:08:42.235Z,100867.44
2023-03-19T04:11:10.620Z,100867.44
2023-03-19T04:13:37.190Z,100879.91
2023-03-19T04:16:04.020Z,100874.88
2023-03-19T04:18:30.580Z,100872.38
2023-03-19T04:20:57.227Z,100873.22
2023-03-19T04:23:23.711Z,100875.03
2023-03-19T04:25:50.333Z,100873.53
2023-03-19T04:28:18.250Z,100872.84
2023-03-19T04:30:44.732Z,100867.53
2023-03-19T04:33:11.434Z,100870.69
2023-03-19T04:35:37.981Z,100878.66
2023-03-19T04:38:04.467Z,100881.47
2023-03-19T04:40:31.072Z,100884.13
2023-03-19T04:42:57.579Z,100888.59
2023-03-19T04:45:25.477Z,100885.41
2023-03-19T04:47:51.956Z,100884.25
2023-03-19T04:50:18.611Z,100873.75
2023-03-19T04:52:45.102Z,100877.56
2023-03-19T04:55:11.620Z,100875.22
2023-03-19T04:57:38.113Z,100893.31
2023-03-19T05:00:05.298Z,100886.78
2023-03-19T05:02:33.149Z,100898.56
2023-03-19T05:04:59.718Z,100895.22
2023-03-19T05:07:26.219Z,100904.50
2023-03-19T05:09:52.762Z,100897.50
2023-03-19T05:12:19.233Z,100896.53
2023-03-19T05:14:45.704Z,100899.34
2023-03-19T05:17:12.230Z,100890.38
2023-03-19T05:19:40.063Z,100896.81
2023-03-19T05:22:06.548Z,100896.00
2023-03-19T05:24:33.007Z,100898.81
2023-03-19T05:26:59.473Z,100903.31
2023-03-19T05:29:26.019Z,100897.66
2023-03-19T05:31:52.565Z,100900.31
2023-03-19T05:34:19.086Z,100900.31
2023-03-19T05:36:46.930Z,100905.47
2023-03-19T05:39:13.417Z,100905.63
2023-03-19T05:41:39.897Z,100907.16
2023-03-19T05:44:06.454Z,100910.63
2023-03-19T05:46:32.973Z,100916.78
2023-03-19T05:48:59.468Z,100923.78
2023-03-19T05:51:25.983Z,100919.16
2023-03-19T05:53:53.809Z,100925.44
2023-03-19T05:56:20.467Z,100929.91
2023-03-19T05:58:47.024Z,100934.41
2023-03-19T06:01:13.647Z,100930.91
2023-03-19T06:03:40.160Z,100931.75
2023-03-19T06:06:07.079Z,100923.78
2023-03-19T06:08:33.663Z,100940.41
2023-03-19T06:11:01.499Z,100929.78
2023-03-19T06:13:27.968Z,100943.06
2023-03-19T06:15:54.449Z,100939.41
2023-03-19T06:18:20.980Z,100936.75
2023-03-19T06:20:47.845Z,100945.38
2023-03-19T06:23:16.261Z,100943.56
2023-03-19T06:25:43.028Z,100955.03
2023-03-19T06:28:10.852Z,100952.22
2023-03-19T06:30:37.440Z,100961.72
2023-03-19T06:33:04.151Z,100964.38
2023-03-19T06:35:30.788Z,100968.69
2023-03-19T06:37:57.330Z,100962.69
2023-03-19T06:40:23.805Z,100968.84
2023-03-19T06:42:50.340Z,100960.03
2023-03-19T06:45:18.154Z,100964.66
2023-03-19T06:47:45.636Z,100969.00
2023-03-19T06:50:12.349Z,100971.50
2023-03-19T06:52:39.041Z,100973.19
2023-03-19T06:55:06.319Z,100970.66
2023-03-19T06:57:32.788Z,100975.00
2023-03-19T06:59:59.279Z,100978.63
2023-03-19T07:02:27.278Z,100980.16
2023-03-19T07:04:53.787Z,100980.16
2023-03-19T07:07:20.274Z,100974.69
2023-03-19T07:09:46.971Z,100979.69
2023-03-19T07:12:13.649Z,100978.84
2023-03-19T07:14:40.090Z,100979.53
2023-03-19T07:17:09.071Z,100980.06
2023-03-19T07:19:38.036Z,100980.59
2023-03-19T07:22:04.678Z,100983.63
2023-03-19T07:24:31.153Z,100992.81
2023-03-19T07:26:57.626Z,100996.66
2023-03-19T07:29:24.114Z,100991.88
2023-03-19T07:31:50.590Z,101003.34
2023-03-19T07:34:17.155Z,100995.56
2023-03-19T07:36:45.061Z,101003.09
2023-03-19T07:39:11.544Z,101004.75
2023-03-19T07:41:37.998Z,101004.59
2023-03-19T07:44:04.567Z,101002.44
2023-03-19T07:46:31.062Z,101011.25
2023-03-19T07:48:57.584Z,101005.94
2023-03-19T07:51:24.072Z,101014.28
2023-03-19T07:53:51.881Z,101018.47
2023-03-19T07:56:18.353Z,101021.78
2023-03-19T07:58:44.878Z,101030.31
2023-03-19T08:01:11.359Z,101013.16
2023-03-19T08:03:38.166Z,101027.94
2023-03-19T08:06:05.254Z,101029.91
2023-03-19T08:08:31.813Z,101028.44
2023-03-19T08:10:59.622Z,101029.25
2023-03-19T08:13:26.197Z,101032.56
2023-03-19T08:15:52.723Z,101035.25
2023-03-19T08:18:19.791Z,101038.47
2023-03-19T08:20:46.728Z,101034.25
2023-03-19T08:23:13.748Z,101038.69
2023-03-19T08:25:40.513Z,101040.72
2023-03-19T08:28:08.585Z,101038.63
2023-03-19T08:30:35.886Z,101048.66
2023-03-19T08:33:02.965Z,101043.97
2023-03-19T08:35:29.874Z,101046.00
2023-03-19T08:37:56.824Z,101046.16
2023-03-19T08:40:23.650Z,101050.53
2023-03-19T08:42:50.208Z,101049.91
2023-03-19T08:45:18.864Z,101052.78
2023-03-19T08:47:45.713Z,101051.78
2023-03-19T08:50:12.276Z,101052.47
2023-03-19T08:52:39.254Z,101054.13
2023-03-19T08:55:06.411Z,101054.47
2023-03-19T08:57:33.097Z,101057.63
2023-03-19T08:59:59.573Z,101059.97
2023-03-19T09:02:27.587Z,101066.47
2023-03-19T09:04:54.092Z,101057.16
2023-03-19T09:07:20.828Z,101064.16
2023-03-19T09:09:47.298Z,101065.47
2023-03-19T09:12:15.680Z,101063.00
2023-03-19T09:14:42.998Z,101069.84
2023-03-19T09:17:10.810Z,101076.50
2023-03-19T09:19:38.953Z,101081.50
2023-03-19T09:22:05.613Z,101078.81
2023-03-19T09:24:32.121Z,101085.97
2023-03-19T09:26:58.625Z,101071.81
2023-03-19T09:29:25.130Z,101086.13
2023-03-19T09:31:51.617Z,101088.47
2023-03-19T09:34:18.110Z,101087.63
2023-03-19T09:36:45.894Z,101093.03
2023-03-19T09:39:12.435Z,101089.03
2023-03-19T09:41:54.183Z,101090.84
2023-03-19T09:44:27.726Z,101096.16
2023-03-19T09:46:57.450Z,101102.47
2023-03-19T09:49:25.931Z,101096.25
2023-03-19T09:51:56.501Z,101106.88
2023-03-19T09:54:28.019Z,101101.66
2023-03-19T09:56:55.563Z,101107.28
2023-03-19T09:59:24.872Z,101103.88
2023-03-19T10:01:58.884Z,101106.59
2023-03-19T10:04:41.980Z,101108.88
2023-03-19T10:07:24.302Z,101115.06
2023-03-19T10:10:03.128Z,101110.84
2023-03-19T10:12:45.021Z,101119.31
2023-03-19T10:15:18.329Z,101101.03
2023-03-19T10:17:54.023Z,101113.53
2023-03-19T10:20:30.520Z,101116.97
2023-03-19T10:23:08.710Z,101120.78
2023-03-19T10:25:41.411Z,101116.91
2023-03-19T10:28:14.839Z,101115.66
2023-03-19T10:30:41.824Z,101124.91
2023-03-19T10:33:20.978Z,101125.09
2023-03-19T10:35:50.889Z,101125.25
2023-03-19T10:38:20.548Z,101118.31
2023-03-19T10:41:01.596Z,101115.75
2023-03-19T10:43:29.871Z,101127.41
2023-03-19T10:45:57.225Z,101114.94
2023-03-19T10:48:27.671Z,101115.88
2023-03-19T10:50:58.786Z,101122.44
2023-03-19T10:53:32.753Z,101119.75
2023-03-19T10:56:03.286Z,101130.84
2023-03-19T10:58:32.045Z,101122.06
2023-03-19T11:01:03.674Z,101120.56
2023-03-19T11:03:32.313Z,101123.78
2023-03-19T11:06:15.914Z,101125.34
2023-03-19T11:08:51.971Z,101128.88
2023-03-19T11:11:26.666Z,101128.31
2023-03-19T11:13:53.310Z,101129.91
2023-03-19T11:16:19.903Z,101134.28
2023-03-19T11:18:48.385Z,101129.19
2023-03-19T11:21:23.393Z,101131.03
2023-03-19T11:23:58.582Z,101130.72
2023-03-19T11:26:25.090Z,101128.78
2023-03-19T11:28:52.044Z,101132.50
2023-03-19T11:31:24.045Z,101140.31
2023-03-19T11:34:02.816Z,101136.81
2023-03-19T11:36:33.535Z,101140.88
2023-03-19T11:39:17.709Z,101133.97
2023-03-19T11:42:02.134Z,101128.78
2023-03-19T11:44:32.680Z,101128.59
2023-03-19T11:47:17.823Z,101136.94
2023-03-19T11:50:14.516Z,101138.06
2023-03-19T11:52:53.229Z,101127.66
2023-03-19T11:55:25.988Z,101124.44
2023-03-19T11:58:03.604Z,101120.03
2023-03-19T12:00:35.951Z,101116.88
2023-03-19T12:03:32.340Z,101123.91
2023-03-19T12:06:00.956Z,101124.47
2023-03-19T12:08:37.754Z,101129.91
2023-03-19T12:11:19.205Z,101135.13
2023-03-19T12:14:01.464Z,101132.53
2023-03-19T12:16:44.124Z,101127.75
2023-03-19T12:19:33.401Z,101137.63
2023-03-19T12:22:12.173Z,101125.75
2023-03-19T12:24:54.731Z,101126.34
2023-03-19T12:27:31.191Z,101118.06
2023-03-19T12:30:02.139Z,101123.44
2023-03-19T12:32:48.833Z,101127.69
2023-03-19T12:35:18.628Z,101129.09
2023-03-19T12:37:58.357Z,101127.66
2023-03-19T12:40:29.442Z,101126.59
2023-03-19T12:42:59.584Z,101131.44
2023-03-19T12:45:31.120Z,101131.09
2023-03-19T12:48:05.866Z,101128.44
2023-03-19T12:50:36.417Z,101125.41
2023-03-19T12:53:09.173Z,101130.28
2023-03-19T12:55:40.275Z,101134.69
2023-03-19T12:58:18.347Z,101123.97
2023-03-19T13:00:52.440Z,101125.16
2023-03-19T13:03:24.911Z,101132.72
2023-03-19T13:05:58.234Z,101132.38
2023-03-19T13:08:31.817Z,101134.56
2023-03-19T13:10:59.690Z,101142.31
2023-03-19T13:13:38.474Z,101145.91
2023-03-19T13:16:13.914Z,101143.16
2023-03-19T13:18:49.592Z,101140.41
2023-03-19T13:21:24.007Z,101137.69
2023-03-19T13:24:07.038Z,101141.00
2023-03-19T13:26:34.428Z,101141.47
2023-03-19T13:29:08.955Z,101149.81
2023-03-19T13:31:37.625Z,101149.81
2023-03-19T13:34:06.235Z,101151.50
2023-03-19T13:36:37.519Z,101145.97
2023-03-19T13:39:11.376Z,101151.91
2023-03-19T13:42:06.310Z,101154.88
2023-03-19T13:44:39.099Z,101156.19
2023-03-19T13:47:39.565Z,101156.09
2023-03-19T13:50:28.533Z,101149.16
2023-03-19T13:53:19.455Z,101151.66
2023-03-19T13:55:51.816Z,101156.78
2023-03-19T13:58:21.433Z,101155.38
2023-03-19T14:00:59.842Z,101157.13
2023-03-19T14:03:29.890Z,101150.22
2023-03-19T14:05:57.828Z,101155.78
2023-03-19T14:08:26.888Z,101152.09
2023-03-19T14:10:55.860Z,101157.53
2023-03-19T14:13:30.929Z,101162.53
2023-03-19T14:16:06.953Z,101165.03
2023-03-19T14:18:38.240Z,101171.00
2023-03-19T14:21:08.803Z,101165.16
2023-03-19T14:23:44.096Z,101169.09
2023-03-19T14:26:16.983Z,101175.38
2023-03-19T14:28:51.972Z,101172.25
2023-03-19T14:31:25.927Z,101168.59
2023-03-19T14:33:59.452Z,101170.16
2023-03-19T14:36:26.755Z,101171.25
2023-03-19T14:38:56.837Z,101177.38
2023-03-19T14:41:27.266Z,101178.44
2023-03-19T14:44:12.438Z,101169.41
2023-03-19T14:46:53.467Z,101178.44
2023-03-19T14:49:48.915Z,101171.69
2023-03-19T14:52:19.061Z,101165.63
2023-03-19T14:54:51.028Z,101157.06
2023-03-19T14:57:19.295Z,101164.56
2023-03-19T14:59:46.166Z,101177.78
2023-03-19T15:02:27.463Z,101165.41
2023-03-19T15:04:55.140Z,101171.75
2023-03-19T15:07:28.599Z,101176.56
2023-03-19T15:09:55.827Z,101175.97
2023-03-19T15:12:44.614Z,101180.03
2023-03-19T15:15:30.494Z,101183.41
2023-03-19T15:18:04.224Z,101181.56
2023-03-19T15:20:37.397Z,101184.66
2023-03-19T15:23:13.528Z,101182.06
2023-03-19T15:25:47.471Z,101175.56
2023-03-19T15:28:16.020Z,101177.41
2023-03-19T15:30:54.874Z,101172.78
2023-03-19T15:33:40.047Z,101168.50
2023-03-19T15:36:09.998Z,101171.53
2023-03-19T15:38:39.802Z,101172.00
2023-03-19T15:41:08.432Z,101177.63
2023-03-19T15:43:38.386Z,101179.59
2023-03-19T15:46:07.237Z,101177.88
2023-03-19T15:48:39.215Z,101188.63
2023-03-19T15:51:07.362Z,101188.56
2023-03-19T15:53:36.132Z,101191.75
2023-03-19T15:56:04.687Z,101188.84
2023-03-19T15:58:37.444Z,101188.25
2023-03-19T16:01:07.623Z,101194.81
2023-03-19T16:03:38.024Z,101189.53
2023-03-19T16:06:07.477Z,101192.47
2023-03-19T16:08:34.017Z,101199.75
2023-03-19T16:11:14.824Z,101210.50
2023-03-19T16:13:46.210Z,101224.31
2023-03-19T16:16:19.185Z,101210.94
2023-03-19T16:18:50.142Z,101227.25
2023-03-19T16:21:19.659Z,101230.31
2023-03-19T16:23:52.055Z,101237.09
2023-03-19T16:26:24.921Z,101237.69
2023-03-19T16:29:17.657Z,101245.38
2023-03-19T16:31:46.134Z,101253.91
2023-03-19T16:34:24.738Z,101255.47
2023-03-19T16:36:51.642Z,101257.81
2023-03-19T16:39:25.992Z,101253.88
2023-03-19T16:42:14.676Z,101260.53
2023-03-19T16:44:43.184Z,101261.22
2023-03-19T16:47:10.893Z,101266.94
2023-03-19T16:49:38.718Z,101277.09
2023-03-19T16:52:06.317Z,101280.53
2023-03-19T16:54:32.871Z,101294.50
2023-03-19T16:57:00.124Z,101287.66
2023-03-19T16:59:30.917Z,101298.22
2023-03-19T17:01:58.049Z,101301.84
2023-03-19T17:04:24.854Z,101305.06
2023-03-19T17:07:00.529Z,101309.72
2023-03-19T17:09:27.809Z,101310.56
2023-03-19T17:11:58.021Z,101312.56
2023-03-19T17:14:25.779Z,101312.69
2023-03-19T17:16:54.484Z,101318.19
2023-03-19T17:19:26.289Z,101318.34
2023-03-19T17:21:58.825Z,101328.50
2023-03-19T17:24:32.387Z,101330.03
2023-03-19T17:27:02.681Z,101336.66
2023-03-19T17:29:36.824Z,101341.97
2023-03-19T17:32:18.211Z,101345.47
2023-03-19T17:34:44.800Z,101347.53
2023-03-19T17:37:13.759Z,101352.00
2023-03-19T17:39:40.305Z,101359.38
2023-03-19T17:42:17.199Z,101364.53
2023-03-19T17:44:43.732Z,101368.91
2023-03-19T17:47:10.556Z,101375.41
2023-03-19T17:49:37.965Z,101385.00
2023-03-19T17:52:13.853Z,101386.31
2023-03-19T17:54:40.345Z,101395.16
2023-03-19T17:57:10.879Z,101403.13
2023-03-19T17:59:37.350Z,101406.19
2023-03-19T18:02:25.046Z,101405.34
2023-03-19T18:04:52.700Z,101413.47
2023-03-19T18:07:20.625Z,101417.81
2023-03-19T18:09:48.205Z,101423.56
2023-03-19T18:12:14.700Z,101427.72
2023-03-19T18:14:41.268Z,101431.91
2023-03-19T18:17:14.192Z,101440.94
2023-03-19T18:19:40.828Z,101438.78
2023-03-19T18:22:12.837Z,101454.25
2023-03-19T18:24:40.701Z,101458.53
2023-03-19T18:27:07.222Z,101457.81
2023-03-19T18:29:33.676Z,101465.81
2023-03-19T18:32:04.710Z,101474.16
2023-03-19T18:34:31.621Z,101479.13
2023-03-19T18:36:59.131Z,101492.88
2023-03-19T18:39:25.633Z,101504.81
2023-03-19T18:41:53.443Z,101505.22
2023-03-19T18:44:19.945Z,101509.59
2023-03-19T18:46:46.664Z,101514.16
2023-03-19T18:49:21.591Z,101518.16
2023-03-19T18:52:01.458Z,101515.94
2023-03-19T18:54:28.464Z,101523.94
2023-03-19T18:56:57.544Z,101528.16
2023-03-19T18:59:26.961Z,101537.16
2023-03-19T19:01:58.304Z,101541.47
2023-03-19T19:04:24.968Z,101529.69
2023-03-19T19:06:51.890Z,101535.91
2023-03-19T19:09:18.366Z,101538.75
2023-03-19T19:11:47.569Z,101542.09
2023-03-19T19:14:20.004Z,101555.25
2023-03-19T19:16:47.591Z,101556.50
2023-03-19T19:19:16.796Z,101557.91
2023-03-19T19:21:43.474Z,101560.41
2023-03-19T19:24:09.993Z,101570.34
2023-03-19T19:26:36.605Z,101572.34
2023-03-19T19:29:04.289Z,101565.63
2023-03-19T19:31:33.780Z,101578.78
2023-03-19T19:34:00.288Z,101586.63
2023-03-19T19:36:27.579Z,101580.59
2023-03-19T19:38:54.440Z,101586.44
2023-03-19T19:41:24.144Z,101589.41
2023-03-19T19:43:52.332Z,101592.06
2023-03-19T19:46:20.678Z,101593.97
2023-03-19T19:48:49.060Z,101595.66
2023-03-19T19:51:19.136Z,101594.84
2023-03-19T19:53:45.595Z,101595.81
2023-03-19T19:56:15.465Z,101600.13
2023-03-19T19:58:43.324Z,101602.94
2023-03-19T20:01:15.056Z,101611.69
2023-03-19T20:03:42.190Z,101604.59
2023-03-19T20:06:12.909Z,101614.69
2023-03-19T20:08:40.473Z,101615.63
2023-03-19T20:11:15.849Z,101619.28
2023-03-19T20:13:43.530Z,101617.88
2023-03-19T20:16:11.702Z,101615.91
2023-03-19T20:18:38.719Z,101614.69
2023-03-19T20:21:05.540Z,101616.72
2023-03-19T20:23:33.385Z,101624.31
2023-03-19T20:26:00.962Z,101616.75
2023-03-19T20:28:30.110Z,101612.00
2023-03-19T20:30:56.665Z,101617.81
2023-03-19T20:33:23.178Z,101623.16
2023-03-19T20:35:50.304Z,101619.16
2023-03-19T20:38:17.088Z,101629.47
2023-03-19T20:40:47.299Z,101625.88
2023-03-19T20:43:23.062Z,101636.53
2023-03-19T20:45:49.985Z,101638.22
2023-03-19T20:48:16.532Z,101636.31
2023-03-19T20:50:43.881Z,101643.78
2023-03-19T20:53:10.658Z,101643.66
2023-03-19T20:55:39.007Z,101652.28
2023-03-19T20:58:14.521Z,101650.69
2023-03-19T21:00:41.074Z,101656.34
2023-03-19T21:03:16.090Z,101653.59
2023-03-19T21:05:42.708Z,101652.13
2023-03-19T21:08:14.393Z,101662.81
2023-03-19T21:10:43.241Z,101657.63
2023-03-19T21:13:13.618Z,101663.47
2023-03-19T21:15:40.290Z,101660.34
2023-03-19T21:18:06.771Z,101663.47
2023-03-19T21:20:33.620Z,101660.50
2023-03-19T21:23:10.434Z,101662.66
2023-03-19T21:25:37.183Z,101653.38
2023-03-19T21:28:11.319Z,101654.84
2023-03-19T21:30:42.479Z,101659.84
2023-03-19T21:33:20.474Z,101662.88
2023-03-19T21:35:46.996Z,101661.53
2023-03-19T21:38:13.474Z,101668.00
2023-03-19T21:40:40.030Z,101663.94
2023-03-19T21:43:06.645Z,101664.00
2023-03-19T21:45:35.171Z,101662.28
2023-03-19T21:48:23.082Z,101662.66
2023-03-19T21:50:50.121Z,101668.78
2023-03-19T21:53:17.057Z,101662.25
2023-03-19T21:55:43.612Z,101668.53
2023-03-19T21:58:11.955Z,101662.38
2023-03-19T22:04:05.400Z,101666.03
2023-03-19T22:06:31.967Z,101667.22
2023-03-19T22:08:58.859Z,101666.34
2023-03-19T22:11:27.445Z,101664.09
2023-03-19T22:13:54.383Z,101668.88
2023-03-19T22:16:23.519Z,101682.66
2023-03-19T22:18:51.206Z,101669.00
2023-03-19T22:21:22.004Z,101675.72
2023-03-19T22:23:48.678Z,101674.63
2023-03-19T22:26:27.373Z,101678.72
2023-03-19T22:28:54.457Z,101677.47
2023-03-19T22:31:21.121Z,101676.44
2023-03-19T22:33:47.781Z,101673.78
2023-03-19T22:36:14.975Z,101672.13
2023-03-19T22:38:43.103Z,101673.97
2023-03-19T22:41:15.392Z,101673.72
2023-03-19T22:43:42.386Z,101674.03
2023-03-19T22:46:11.811Z,101677.16
2023-03-19T22:48:39.128Z,101666.38
2023-03-19T22:51:06.047Z,101678.16
2023-03-19T22:53:34.425Z,101669.13
2023-03-19T22:56:03.832Z,101678.53
2023-03-19T22:58:30.660Z,101679.59
2023-03-19T23:00:57.339Z,101677.56
2023-03-19T23:03:26.047Z,101686.59
2023-03-19T23:05:54.302Z,101693.59
2023-03-19T23:08:20.819Z,101697.06
2023-03-19T23:10:47.668Z,101699.09
2023-03-19T23:13:15.532Z,101692.81
2023-03-19T23:15:42.750Z,101693.34
2023-03-19T23:18:17.276Z,101692.63
2023-03-19T23:20:43.887Z,101698.41
2023-03-19T23:23:12.738Z,101691.13
2023-03-19T23:25:39.652Z,101697.28
2023-03-19T23:28:06.157Z,101700.44
2023-03-19T23:30:34.048Z,101705.63
2023-03-19T23:33:02.222Z,101700.44
2023-03-19T23:35:30.495Z,101708.00
2023-03-19T23:37:57.749Z,101712.00
2023-03-19T23:40:26.759Z,101721.28
2023-03-19T23:42:55.020Z,101719.38
2023-03-19T23:45:30.336Z,101718.41
2023-03-19T23:48:00.059Z,101721.78
2023-03-19T23:50:26.685Z,101731.53
2023-03-19T23:52:53.519Z,101730.69
2023-03-19T23:55:20.281Z,101734.66
2023-03-19T23:57:47.627Z,101727.06
